Time;durP1;ratioP1;P1;durP2;ratioP2;P2;SDS_P1;SDS_P2;PMS_P1;PMS_P2;Temp;Humidity;BMP_temperature;BMP_pressure;BME280_temperature;BME280_humidity;BME280_pressure;Samples;Min_cycle;Max_cycle;Signal;HPM_P1;HPM_P2
2022/11/28 00:01:40;;;;;;;;;;;20.10;61.00;;;;;;6077629;29;21023;-47
2022/11/28 00:04:41;;;;;;;;;;;20.50;61.00;;;;;;6073267;29;19927;-47
2022/11/28 00:07:43;;;;;;;;;;;20.10;61.00;;;;;;6073395;29;19931;-48
2022/11/28 00:10:45;;;;;;;;;;;20.40;61.00;;;;;;6075385;29;19931;-48
2022/11/28 00:13:46;;;;;;;;;;;20.50;61.10;;;;;;6074158;29;19938;-46
2022/11/28 00:16:48;;;;;;;;;;;20.50;60.90;;;;;;6078419;29;19931;-51
2022/11/28 00:19:49;;;;;;;;;;;20.90;61.20;;;;;;6078212;29;19931;-47
2022/11/28 00:22:51;;;;;;;;;;;20.80;61.10;;;;;;6070850;29;20050;-48
2022/11/28 00:25:56;;;;;;;;;;;20.10;60.80;;;;;;6079017;29;20457;-46
2022/11/28 00:28:58;;;;;;;;;;;20.30;60.80;;;;;;6080225;29;19935;-46
2022/11/28 00:31:59;;;;;;;;;;;20.10;60.70;;;;;;6074178;29;19988;-46
2022/11/28 00:35:00;;;;;;;;;;;20.60;61.10;;;;;;6080581;29;19935;-51
2022/11/28 00:38:02;;;;;;;;;;;21.50;61.50;;;;;;6075041;29;19995;-46
2022/11/28 00:41:05;;;;;;;;;;;20.50;60.90;;;;;;6076827;29;19934;-46
2022/11/28 00:44:06;;;;;;;;;;;21.00;61.10;;;;;;6073181;29;19926;-49
2022/11/28 00:47:07;;;;;;;;;;;20.50;61.00;;;;;;6079488;29;20526;-47
2022/11/28 00:50:09;;;;;;;;;;;20.50;60.80;;;;;;6078821;29;19974;-49
2022/11/28 00:53:11;;;;;;;;;;;20.50;61.00;;;;;;6074556;28;19927;-48
2022/11/28 00:56:13;;;;;;;;;;;20.60;61.00;;;;;;6078651;29;20466;-48
2022/11/28 00:59:14;;;;;;;;;;;20.50;60.80;;;;;;6077617;29;19931;-50
2022/11/28 01:02:16;;;;;;;;;;;20.00;60.80;;;;;;6074717;29;19989;-47
2022/11/28 01:05:17;;;;;;;;;;;20.80;61.10;;;;;;6077127;28;19970;-47
2022/11/28 01:08:19;;;;;;;;;;;20.50;61.00;;;;;;6076046;29;20316;-49
2022/11/28 01:11:21;;;;;;;;;;;20.00;60.30;;;;;;6074819;29;20038;-47
2022/11/28 01:14:23;;;;;;;;;;;20.10;60.30;;;;;;6076964;28;19927;-51
2022/11/28 01:17:25;;;;;;;;;;;20.30;60.60;;;;;;6075919;29;20215;-50
2022/11/28 01:20:26;;;;;;;;;;;20.70;60.70;;;;;;6078082;28;19961;-48
2022/11/28 01:23:28;;;;;;;;;;;20.10;60.60;;;;;;6074739;29;19938;-49
2022/11/28 01:26:30;;;;;;;;;;;20.50;60.80;;;;;;6077681;29;20022;-47
2022/11/28 01:29:31;;;;;;;;;;;20.00;60.40;;;;;;6079260;29;19926;-49
2022/11/28 01:32:32;;;;;;;;;;;20.30;60.80;;;;;;6074075;29;20388;-51
2022/11/28 01:35:34;;;;;;;;;;;20.40;60.70;;;;;;6079764;28;19931;-46
2022/11/28 01:38:36;;;;;;;;;;;20.40;60.80;;;;;;6072457;29;19931;-47
2022/11/28 01:41:38;;;;;;;;;;;20.00;60.30;;;;;;6072044;29;19927;-52
2022/11/28 01:44:54;;;;;;;;;;;20.30;60.60;;;;;;6073792;29;20266;-50
2022/11/28 01:47:57;;;;;;;;;;;20.30;60.50;;;;;;6072479;29;19937;-49
2022/11/28 01:51:01;;;;;;;;;;;20.10;60.40;;;;;;6074127;29;19935;-48
2022/11/28 01:54:03;;;;;;;;;;;20.20;60.40;;;;;;6073158;29;19931;-46
2022/11/28 01:57:06;;;;;;;;;;;20.40;60.70;;;;;;6071786;29;19970;-47
2022/11/28 02:00:08;;;;;;;;;;;20.40;60.40;;;;;;6075683;29;20612;-49
2022/11/28 02:03:19;;;;;;;;;;;20.40;60.30;;;;;;6072734;29;20421;-47
2022/11/28 02:06:22;;;;;;;;;;;20.60;60.50;;;;;;6076358;29;20697;-47
2022/11/28 02:09:24;;;;;;;;;;;20.50;60.50;;;;;;6076159;29;20025;-47
2022/11/28 02:12:33;;;;;;;;;;;20.40;60.50;;;;;;6069999;29;19937;-48
2022/11/28 02:15:43;;;;;;;;;;;20.40;60.40;;;;;;6080316;29;20026;-48
2022/11/28 02:18:54;;;;;;;;;;;20.10;60.20;;;;;;6075247;29;19997;-46
2022/11/28 02:21:58;;;;;;;;;;;20.10;60.20;;;;;;6077859;29;19927;-49
2022/11/28 02:25:12;;;;;;;;;;;20.10;60.10;;;;;;6072035;29;20356;-46
2022/11/28 02:28:22;;;;;;;;;;;20.30;60.30;;;;;;6051323;29;20184;-48
2022/11/28 02:31:28;;;;;;;;;;;20.00;60.20;;;;;;6062430;29;20115;-48
2022/11/28 02:34:33;;;;;;;;;;;19.90;60.00;;;;;;6065670;29;20402;-49
2022/11/28 02:37:36;;;;;;;;;;;20.80;60.70;;;;;;6060802;29;19981;-46
2022/11/28 02:40:39;;;;;;;;;;;20.60;60.50;;;;;;6063722;29;20068;-46
2022/11/28 02:43:43;;;;;;;;;;;20.20;60.20;;;;;;6056642;29;19953;-46
2022/11/28 02:46:48;;;;;;;;;;;20.40;60.40;;;;;;6067831;29;20374;-46
2022/11/28 02:49:56;;;;;;;;;;;19.90;60.10;;;;;;6064862;29;19931;-46
2022/11/28 02:53:02;;;;;;;;;;;20.50;60.30;;;;;;6063932;29;20042;-49
2022/11/28 02:56:04;;;;;;;;;;;20.40;60.30;;;;;;6061646;29;20015;-48
2022/11/28 02:59:22;;;;;;;;;;;20.20;60.10;;;;;;6062869;29;20020;-49
2022/11/28 03:02:27;;;;;;;;;;;20.10;59.90;;;;;;6065847;29;19927;-47
2022/11/28 03:05:32;;;;;;;;;;;19.80;60.00;;;;;;6070191;29;19927;-46
2022/11/28 03:08:37;;;;;;;;;;;20.60;60.40;;;;;;6066653;29;20494;-48
2022/11/28 03:11:46;;;;;;;;;;;20.40;60.10;;;;;;6064365;29;20033;-49
2022/11/28 03:14:50;;;;;;;;;;;20.00;60.00;;;;;;6065030;29;19926;-48
2022/11/28 03:17:53;;;;;;;;;;;20.30;60.20;;;;;;6069846;29;20041;-48
2022/11/28 03:20:59;;;;;;;;;;;20.30;60.20;;;;;;6066342;29;19926;-48
2022/11/28 03:24:03;;;;;;;;;;;20.60;60.40;;;;;;6068929;29;19983;-47
2022/11/28 03:27:07;;;;;;;;;;;20.00;60.10;;;;;;6071710;28;19997;-46
2022/11/28 03:30:11;;;;;;;;;;;20.30;60.30;;;;;;6083282;28;19969;-48
2022/11/28 03:33:13;;;;;;;;;;;20.10;60.10;;;;;;6066672;29;20378;-48
2022/11/28 03:36:17;;;;;;;;;;;20.00;60.00;;;;;;6068161;29;19946;-48
2022/11/28 03:39:20;;;;;;;;;;;20.30;60.10;;;;;;6072938;29;20422;-47
2022/11/28 03:42:22;;;;;;;;;;;20.70;60.30;;;;;;6064354;28;20099;-46
2022/11/28 03:45:25;;;;;;;;;;;20.40;60.00;;;;;;6066373;29;19927;-46
2022/11/28 03:48:29;;;;;;;;;;;20.40;60.10;;;;;;6068183;29;19974;-47
2022/11/28 03:51:35;;;;;;;;;;;20.30;60.10;;;;;;6060046;29;20087;-47
2022/11/28 03:54:40;;;;;;;;;;;20.00;59.90;;;;;;6065856;29;19930;-47
2022/11/28 03:57:45;;;;;;;;;;;20.30;60.70;;;;;;6069769;29;20005;-47
2022/11/28 04:00:50;;;;;;;;;;;20.30;60.00;;;;;;6065445;29;19926;-47
2022/11/28 04:03:53;;;;;;;;;;;20.00;59.90;;;;;;6066743;29;19933;-48
2022/11/28 04:06:57;;;;;;;;;;;20.20;60.00;;;;;;6069210;29;20875;-47
2022/11/28 04:10:01;;;;;;;;;;;20.30;60.00;;;;;;6067424;29;19931;-47
2022/11/28 04:13:06;;;;;;;;;;;20.10;59.90;;;;;;6065254;29;19970;-49
2022/11/28 04:16:10;;;;;;;;;;;20.00;59.90;;;;;;6064371;29;19926;-48
2022/11/28 04:19:15;;;;;;;;;;;20.30;59.90;;;;;;6068333;29;20069;-48
2022/11/28 04:22:19;;;;;;;;;;;19.80;59.70;;;;;;6064819;29;20410;-47
2022/11/28 04:25:22;;;;;;;;;;;20.10;59.80;;;;;;6066537;29;20565;-47
2022/11/28 04:28:29;;;;;;;;;;;19.60;59.50;;;;;;6070677;29;19962;-49
2022/11/28 04:31:31;;;;;;;;;;;20.10;59.90;;;;;;6068116;29;20073;-47
2022/11/28 04:34:34;;;;;;;;;;;20.40;59.90;;;;;;6068543;29;20212;-47
2022/11/28 04:37:37;;;;;;;;;;;20.30;59.90;;;;;;6064917;29;20076;-47
2022/11/28 04:40:41;;;;;;;;;;;20.50;60.00;;;;;;6065252;29;19937;-46
2022/11/28 04:43:45;;;;;;;;;;;20.40;59.90;;;;;;6062672;29;20260;-48
2022/11/28 04:46:50;;;;;;;;;;;20.00;59.70;;;;;;6065300;29;20497;-49
2022/11/28 04:49:52;;;;;;;;;;;20.40;58.80;;;;;;6066209;28;20642;-48
2022/11/28 04:52:56;;;;;;;;;;;20.30;59.70;;;;;;6063443;28;19927;-46
2022/11/28 04:56:00;;;;;;;;;;;19.90;59.60;;;;;;6062225;29;20087;-47
2022/11/28 04:59:03;;;;;;;;;;;20.40;59.70;;;;;;6067957;29;20588;-47
2022/11/28 05:02:05;;;;;;;;;;;20.00;59.50;;;;;;6059934;29;19926;-51
2022/11/28 05:05:07;;;;;;;;;;;20.20;59.60;;;;;;6064365;29;19927;-48
2022/11/28 05:08:10;;;;;;;;;;;20.20;59.60;;;;;;6071562;29;19938;-46
2022/11/28 05:11:11;;;;;;;;;;;19.90;59.50;;;;;;6063903;29;19934;-46
2022/11/28 05:14:13;;;;;;;;;;;20.50;59.50;;;;;;6065433;29;20360;-48
2022/11/28 05:17:14;;;;;;;;;;;20.30;59.80;;;;;;6069142;29;20015;-46
2022/11/28 05:20:15;;;;;;;;;;;20.30;59.50;;;;;;6062963;29;20825;-47
2022/11/28 05:23:17;;;;;;;;;;;20.40;59.50;;;;;;6063537;29;20778;-48
2022/11/28 05:26:20;;;;;;;;;;;20.10;59.60;;;;;;6063933;29;19938;-48
2022/11/28 05:29:23;;;;;;;;;;;20.00;59.40;;;;;;6059236;29;19938;-48
2022/11/28 05:32:27;;;;;;;;;;;20.40;59.60;;;;;;6059781;29;20536;-46
2022/11/28 05:35:28;;;;;;;;;;;20.30;59.50;;;;;;6063790;29;20841;-47
2022/11/28 05:38:31;;;;;;;;;;;19.80;59.40;;;;;;6061447;29;20267;-49
2022/11/28 05:41:32;;;;;;;;;;;20.40;59.60;;;;;;6058672;29;20037;-47
2022/11/28 05:44:34;;;;;;;;;;;20.20;59.60;;;;;;6063310;29;20285;-48
2022/11/28 05:47:35;;;;;;;;;;;20.30;59.20;;;;;;6061467;28;19930;-46
2022/11/28 05:50:37;;;;;;;;;;;20.00;59.30;;;;;;6060637;29;20482;-49
2022/11/28 05:53:41;;;;;;;;;;;20.30;59.50;;;;;;6055839;29;20481;-48
2022/11/28 05:56:42;;;;;;;;;;;19.80;59.30;;;;;;6061335;29;20579;-46
2022/11/28 05:59:44;;;;;;;;;;;20.40;59.60;;;;;;6059304;29;19927;-46
2022/11/28 06:02:46;;;;;;;;;;;20.10;59.50;;;;;;6048546;29;20663;-46
2022/11/28 06:05:47;;;;;;;;;;;20.20;59.40;;;;;;6056433;29;19937;-47
2022/11/28 06:08:50;;;;;;;;;;;20.00;59.30;;;;;;6057675;29;19974;-46
2022/11/28 06:11:51;;;;;;;;;;;20.40;59.50;;;;;;6067910;29;19926;-46
2022/11/28 06:14:52;;;;;;;;;;;19.90;59.20;;;;;;6077939;28;19930;-47
2022/11/28 06:17:54;;;;;;;;;;;20.20;59.40;;;;;;6073507;29;20481;-48
2022/11/28 06:20:56;;;;;;;;;;;20.70;59.60;;;;;;6076320;29;20985;-46
2022/11/28 06:23:58;;;;;;;;;;;20.30;59.40;;;;;;6077517;29;19996;-47
2022/11/28 06:27:00;;;;;;;;;;;20.00;59.20;;;;;;6077907;29;19937;-50
2022/11/28 06:30:01;;;;;;;;;;;20.40;59.40;;;;;;6074067;29;20474;-49
2022/11/28 06:33:02;;;;;;;;;;;20.60;59.60;;;;;;6075481;29;19954;-47
2022/11/28 06:36:04;;;;;;;;;;;20.20;59.20;;;;;;6079010;29;20013;-49
2022/11/28 06:39:06;;;;;;;;;;;20.00;59.10;;;;;;6061359;29;20297;-48
2022/11/28 06:42:08;;;;;;;;;;;20.20;59.20;;;;;;6053801;29;19937;-46
2022/11/28 06:45:09;;;;;;;;;;;20.40;59.50;;;;;;6058066;29;20288;-48
2022/11/28 06:48:10;;;;;;;;;;;20.10;59.20;;;;;;6042302;28;20354;-47
2022/11/28 06:51:12;;;;;;;;;;;19.90;59.10;;;;;;6059966;29;19974;-49
2022/11/28 06:54:14;;;;;;;;;;;20.40;59.40;;;;;;6061943;29;19931;-48
2022/11/28 06:57:16;;;;;;;;;;;20.50;59.30;;;;;;6051816;29;19931;-47
2022/11/28 07:00:17;;;;;;;;;;;20.70;59.40;;;;;;6056732;29;20756;-50
2022/11/28 07:03:18;;;;;;;;;;;20.00;59.20;;;;;;6053198;29;20013;-46
2022/11/28 07:06:20;;;;;;;;;;;20.30;59.10;;;;;;6053912;29;20525;-50
2022/11/28 07:09:22;;;;;;;;;;;20.40;58.90;;;;;;6058218;29;20048;-50
2022/11/28 07:12:24;;;;;;;;;;;20.20;59.20;;;;;;6046014;29;19931;-48
2022/11/28 07:15:25;;;;;;;;;;;20.30;59.30;;;;;;6050968;29;19970;-48
2022/11/28 07:18:27;;;;;;;;;;;19.90;58.80;;;;;;6063525;28;19966;-48
2022/11/28 07:21:28;;;;;;;;;;;20.10;59.00;;;;;;6037948;29;20021;-49
2022/11/28 07:24:31;;;;;;;;;;;20.30;59.10;;;;;;6032011;29;19968;-47
2022/11/28 07:27:32;;;;;;;;;;;20.20;58.90;;;;;;6057515;28;20013;-51
2022/11/28 07:30:34;;;;;;;;;;;20.30;58.70;;;;;;6020856;28;19974;-47
2022/11/28 07:33:36;;;;;;;;;;;20.50;58.90;;;;;;6004828;28;19975;-47
2022/11/28 07:36:37;;;;;;;;;;;20.10;58.80;;;;;;5988550;29;19930;-47
2022/11/28 07:39:41;;;;;;;;;;;20.10;58.60;;;;;;6019694;28;20044;-47
2022/11/28 07:42:43;;;;;;;;;;;20.10;58.70;;;;;;5997859;29;19958;-49
2022/11/28 07:45:44;;;;;;;;;;;20.50;59.00;;;;;;5991371;29;19974;-53
2022/11/28 07:49:01;;;;;;;;;;;20.50;58.70;;;;;;5971472;29;19937;-47
2022/11/28 07:52:03;;;;;;;;;;;20.40;58.90;;;;;;6004243;29;19931;-46
2022/11/28 07:55:05;;;;;;;;;;;20.50;58.40;;;;;;5960716;29;21179;-47
2022/11/28 07:58:06;;;;;;;;;;;20.50;58.80;;;;;;5933965;29;20029;-47
2022/11/28 08:01:08;;;;;;;;;;;20.50;58.80;;;;;;5894935;28;21653;-50
2022/11/28 08:04:10;;;;;;;;;;;20.20;58.30;;;;;;5873465;29;20319;-48
2022/11/28 08:07:12;;;;;;;;;;;20.50;58.70;;;;;;5886104;29;20022;-49
2022/11/28 08:10:14;;;;;;;;;;;20.50;58.80;;;;;;5846133;29;20393;-51
2022/11/28 08:13:15;;;;;;;;;;;20.60;58.90;;;;;;5876439;29;20934;-45
2022/11/28 08:16:18;;;;;;;;;;;20.70;59.30;;;;;;5853942;29;19930;-46
2022/11/28 08:19:19;;;;;;;;;;;20.70;59.10;;;;;;5838190;29;19931;-49
2022/11/28 08:22:26;;;;;;;;;;;20.70;59.20;;;;;;5886515;28;20084;-48
2022/11/28 08:25:28;;;;;;;;;;;20.00;58.20;;;;;;5864195;29;20010;-46
2022/11/28 08:28:30;;;;;;;;;;;20.70;58.80;;;;;;5885909;28;20005;-48
2022/11/28 08:31:32;;;;;;;;;;;20.30;58.60;;;;;;5801614;29;19942;-47
2022/11/28 08:34:40;;;;;;;;;;;20.40;58.80;;;;;;5849413;29;20707;-50
2022/11/28 08:37:41;;;;;;;;;;;20.30;58.40;;;;;;5832989;29;19965;-48
2022/11/28 08:40:45;;;;;;;;;;;20.60;58.50;;;;;;5805170;29;19973;-47
2022/11/28 08:43:47;;;;;;;;;;;20.20;58.20;;;;;;5822568;29;19958;-47
2022/11/28 08:46:48;;;;;;;;;;;20.10;58.20;;;;;;5829607;29;19930;-48
2022/11/28 08:49:50;;;;;;;;;;;20.60;58.20;;;;;;5856973;29;20625;-47
2022/11/28 08:52:52;;;;;;;;;;;20.90;58.20;;;;;;5828279;28;26113;-47
2022/11/28 08:55:54;;;;;;;;;;;20.80;57.20;;;;;;5868628;29;20403;-44
2022/11/28 08:58:55;;;;;;;;;;;21.10;57.90;;;;;;5862857;29;19930;-44
2022/11/28 09:01:57;;;;;;;;;;;20.30;57.20;;;;;;5830994;29;21788;-51
2022/11/28 09:04:58;;;;;;;;;;;20.50;57.60;;;;;;5838417;28;20033;-46
2022/11/28 09:07:59;;;;;;;;;;;20.90;57.60;;;;;;5777521;28;20025;-46
2022/11/28 09:11:01;;;;;;;;;;;21.00;57.70;;;;;;5783140;29;19936;-44
2022/11/28 09:14:03;;;;;;;;;;;20.70;57.00;;;;;;5747608;29;20754;-46
2022/11/28 09:17:06;;;;;;;;;;;21.90;58.20;;;;;;5725326;28;19931;-46
2022/11/28 09:20:08;;;;;;;;;;;20.80;56.90;;;;;;5740173;29;20762;-49
2022/11/28 09:23:09;;;;;;;;;;;21.50;57.90;;;;;;5745675;29;20358;-46
2022/11/28 09:26:13;;;;;;;;;;;20.80;57.10;;;;;;5775273;28;20556;-44
2022/11/28 09:29:14;;;;;;;;;;;21.30;57.30;;;;;;5761514;29;19940;-45
2022/11/28 09:32:16;;;;;;;;;;;20.80;57.10;;;;;;5739404;29;19942;-46
2022/11/28 09:35:18;;;;;;;;;;;20.50;56.50;;;;;;5721895;29;19937;-46
2022/11/28 09:38:20;;;;;;;;;;;21.10;57.10;;;;;;5789598;29;20338;-46
2022/11/28 09:41:30;;;;;;;;;;;21.00;56.90;;;;;;5796853;29;20470;-45
2022/11/28 09:44:36;;;;;;;;;;;21.10;56.80;;;;;;5811943;29;20675;-51
2022/11/28 09:47:40;;;;;;;;;;;21.20;57.30;;;;;;5817174;28;19930;-47
2022/11/28 09:50:41;;;;;;;;;;;21.30;56.80;;;;;;5853113;28;20035;-45
2022/11/28 09:53:46;;;;;;;;;;;21.60;56.90;;;;;;5835798;28;20025;-45
2022/11/28 09:56:51;;;;;;;;;;;21.20;57.40;;;;;;5862828;28;20006;-49
2022/11/28 09:59:54;;;;;;;;;;;20.50;56.60;;;;;;5851953;28;20326;-45
2022/11/28 10:03:06;;;;;;;;;;;21.30;57.20;;;;;;5809284;29;19980;-45
2022/11/28 10:06:13;;;;;;;;;;;21.00;57.00;;;;;;5833411;29;19974;-45
2022/11/28 10:09:25;;;;;;;;;;;21.50;57.20;;;;;;5848440;29;19931;-44
2022/11/28 10:12:34;;;;;;;;;;;21.60;57.20;;;;;;5838991;29;19961;-45
2022/11/28 10:15:40;;;;;;;;;;;21.40;56.90;;;;;;5814188;29;19941;-47
2022/11/28 10:18:43;;;;;;;;;;;21.60;57.10;;;;;;5810543;29;20548;-48
2022/11/28 10:21:47;;;;;;;;;;;21.00;56.90;;;;;;5843208;29;21353;-45
2022/11/28 10:24:53;;;;;;;;;;;21.60;56.70;;;;;;5841945;29;20346;-47
2022/11/28 10:28:05;;;;;;;;;;;21.30;56.50;;;;;;5871279;29;20626;-44
2022/11/28 10:31:09;;;;;;;;;;;21.80;54.60;;;;;;5881808;28;19930;-46
2022/11/28 10:34:13;;;;;;;;;;;21.40;57.00;;;;;;5816947;29;20001;-48
2022/11/28 10:37:18;;;;;;;;;;;21.40;56.10;;;;;;5833179;29;19931;-43
2022/11/28 10:40:26;;;;;;;;;;;21.60;57.00;;;;;;5826304;28;20143;-46
2022/11/28 10:43:34;;;;;;;;;;;21.30;54.20;;;;;;5842706;29;20119;-50
2022/11/28 10:46:42;;;;;;;;;;;21.30;57.10;;;;;;5823720;29;20584;-50
2022/11/28 10:49:49;;;;;;;;;;;21.40;56.70;;;;;;5840238;29;21151;-48
2022/11/28 10:52:54;;;;;;;;;;;21.20;56.80;;;;;;5832209;29;20014;-46
2022/11/28 10:56:01;;;;;;;;;;;21.60;56.70;;;;;;5823155;29;20782;-57
2022/11/28 10:59:07;;;;;;;;;;;21.50;57.00;;;;;;5806990;29;20022;-48
2022/11/28 11:02:18;;;;;;;;;;;21.80;57.10;;;;;;5761424;29;20025;-44
2022/11/28 11:05:21;;;;;;;;;;;21.20;56.50;;;;;;5761206;29;20391;-46
2022/11/28 11:08:23;;;;;;;;;;;22.00;57.10;;;;;;5793636;28;21305;-43
2022/11/28 11:11:26;;;;;;;;;;;21.10;56.70;;;;;;5765542;29;19930;-52
2022/11/28 11:14:33;;;;;;;;;;;21.90;57.10;;;;;;5834426;29;20231;-47
2022/11/28 11:17:36;;;;;;;;;;;21.40;56.70;;;;;;5868051;29;20021;-46
2022/11/28 11:20:38;;;;;;;;;;;21.40;56.90;;;;;;5878503;29;20733;-49
2022/11/28 11:23:41;;;;;;;;;;;21.40;57.10;;;;;;5862019;29;20037;-44
2022/11/28 11:26:43;;;;;;;;;;;21.20;56.50;;;;;;5885763;29;20426;-44
2022/11/28 11:29:45;;;;;;;;;;;21.40;56.90;;;;;;5890510;29;20014;-46
2022/11/28 11:32:53;;;;;;;;;;;21.80;57.30;;;;;;5868655;28;20461;-46
2022/11/28 11:35:54;;;;;;;;;;;21.50;57.10;;;;;;5877071;29;19977;-43
2022/11/28 11:39:05;;;;;;;;;;;21.40;57.00;;;;;;5879123;29;19990;-43
2022/11/28 11:42:09;;;;;;;;;;;21.20;56.90;;;;;;5885248;29;20045;-51
2022/11/28 11:45:23;;;;;;;;;;;21.60;57.30;;;;;;5938780;29;20541;-49
2022/11/28 11:48:33;;;;;;;;;;;21.50;56.80;;;;;;5937642;29;19942;-44
2022/11/28 11:51:35;;;;;;;;;;;21.80;57.20;;;;;;5918373;29;19957;-48
2022/11/28 11:54:55;;;;;;;;;;;21.00;57.10;;;;;;5912973;29;20068;-50
2022/11/28 11:57:59;;;;;;;;;;;21.50;56.20;;;;;;5909721;28;19930;-45
2022/11/28 12:01:10;;;;;;;;;;;21.50;57.10;;;;;;5913948;29;19962;-52
2022/11/28 12:04:16;;;;;;;;;;;21.50;56.40;;;;;;5911955;29;19937;-43
2022/11/28 12:07:40;;;;;;;;;;;21.30;57.00;;;;;;5918660;29;19930;-45
2022/11/28 12:10:45;;;;;;;;;;;21.70;57.20;;;;;;5888333;28;20404;-49
2022/11/28 12:13:46;;;;;;;;;;;20.90;56.90;;;;;;5903158;29;20362;-45
2022/11/28 12:16:51;;;;;;;;;;;21.60;57.20;;;;;;5881652;29;19930;-44
2022/11/28 12:19:58;;;;;;;;;;;20.90;56.80;;;;;;5924373;29;19930;-45
2022/11/28 12:23:06;;;;;;;;;;;21.70;57.30;;;;;;5918344;29;19931;-46
2022/11/28 12:26:11;;;;;;;;;;;21.40;57.10;;;;;;5902488;29;21720;-45
2022/11/28 12:29:27;;;;;;;;;;;21.60;56.90;;;;;;5888479;28;19930;-44
2022/11/28 12:32:37;;;;;;;;;;;21.50;57.00;;;;;;5891413;29;19973;-47
2022/11/28 12:35:39;;;;;;;;;;;21.60;56.90;;;;;;5893028;29;20517;-51
2022/11/28 12:38:54;;;;;;;;;;;21.30;56.80;;;;;;5932129;29;20565;-49
2022/11/28 12:42:04;;;;;;;;;;;22.20;57.60;;;;;;5886690;29;20486;-51
2022/11/28 12:45:17;;;;;;;;;;;21.60;56.90;;;;;;5917404;28;20025;-46
2022/11/28 12:48:26;;;;;;;;;;;22.10;57.00;;;;;;5854382;29;20627;-54
2022/11/28 12:51:33;;;;;;;;;;;21.40;56.50;;;;;;5862336;28;19974;-51
2022/11/28 12:54:47;;;;;;;;;;;22.00;56.90;;;;;;5871541;29;20025;-45
2022/11/28 12:57:52;;;;;;;;;;;21.60;56.50;;;;;;5886433;29;19930;-50
2022/11/28 13:00:58;;;;;;;;;;;22.10;56.80;;;;;;5802496;28;22133;-46
2022/11/28 13:04:03;;;;;;;;;;;21.40;56.20;;;;;;5747898;29;22060;-48
2022/11/28 13:07:09;;;;;;;;;;;21.60;56.00;;;;;;5811728;29;19954;-48
2022/11/28 13:10:15;;;;;;;;;;;21.70;56.10;;;;;;5858754;29;19934;-46
2022/11/28 13:13:18;;;;;;;;;;;21.70;56.00;;;;;;5858469;29;19931;-53
2022/11/28 13:16:22;;;;;;;;;;;21.70;56.10;;;;;;5849884;29;20691;-46
2022/11/28 13:19:33;;;;;;;;;;;21.90;55.90;;;;;;5871872;29;20012;-47
2022/11/28 13:22:38;;;;;;;;;;;21.90;55.80;;;;;;5858572;28;22830;-52
2022/11/28 13:25:43;;;;;;;;;;;21.90;56.00;;;;;;5864958;28;20403;-46
2022/11/28 13:28:47;;;;;;;;;;;21.80;55.80;;;;;;5888922;29;19985;-47
2022/11/28 13:31:52;;;;;;;;;;;22.00;55.90;;;;;;5853341;29;19930;-50
2022/11/28 13:35:02;;;;;;;;;;;21.80;55.70;;;;;;5848307;29;19930;-45
2022/11/28 13:38:06;;;;;;;;;;;21.60;54.90;;;;;;5859621;29;22287;-47
2022/11/28 13:41:34;;;;;;;;;;;21.90;55.50;;;;;;5845290;29;19931;-47
2022/11/28 13:44:58;;;;;;;;;;;22.30;55.70;;;;;;5865734;29;27004;-52
2022/11/28 13:48:01;;;;;;;;;;;21.60;55.40;;;;;;5863901;29;19931;-44
2022/11/28 13:51:15;;;;;;;;;;;22.00;54.90;;;;;;5893102;29;23378;-46
2022/11/28 13:54:33;;;;;;;;;;;21.70;55.30;;;;;;5884832;28;19931;-46
2022/11/28 13:57:36;;;;;;;;;;;22.30;55.50;;;;;;5844519;29;20053;-46
2022/11/28 14:00:40;;;;;;;;;;;21.90;55.40;;;;;;5852318;29;19937;-45
2022/11/28 14:03:43;;;;;;;;;;;22.00;55.50;;;;;;5844158;29;20018;-49
2022/11/28 14:06:46;;;;;;;;;;;21.90;55.60;;;;;;5847967;29;19937;-45
2022/11/28 14:09:53;;;;;;;;;;;22.00;55.40;;;;;;5839515;29;23221;-48
2022/11/28 14:13:06;;;;;;;;;;;22.10;55.70;;;;;;5828193;29;19941;-47
2022/11/28 14:16:13;;;;;;;;;;;21.60;55.10;;;;;;5852337;29;21181;-50
2022/11/28 14:19:21;;;;;;;;;;;22.40;55.40;;;;;;5846415;29;19937;-45
2022/11/28 14:22:27;;;;;;;;;;;22.30;55.40;;;;;;5839443;29;19930;-49
2022/11/28 14:25:31;;;;;;;;;;;21.80;55.30;;;;;;5764481;29;19941;-48
2022/11/28 14:28:35;;;;;;;;;;;22.00;55.30;;;;;;5789974;29;20069;-48
2022/11/28 14:31:38;;;;;;;;;;;22.00;55.40;;;;;;5807001;28;19931;-48
2022/11/28 14:34:42;;;;;;;;;;;22.10;54.90;;;;;;5805910;29;19931;-49
2022/11/28 14:37:51;;;;;;;;;;;21.40;54.90;;;;;;5807194;28;22302;-49
2022/11/28 14:41:00;;;;;;;;;;;22.50;55.50;;;;;;5775058;29;19954;-47
2022/11/28 14:44:15;;;;;;;;;;;21.80;55.10;;;;;;5816232;28;27505;-45
2022/11/28 14:47:26;;;;;;;;;;;22.10;55.20;;;;;;5775133;29;20676;-49
2022/11/28 14:50:39;;;;;;;;;;;22.00;55.00;;;;;;5797973;29;20880;-50
2022/11/28 14:53:46;;;;;;;;;;;21.90;55.10;;;;;;5857655;29;19934;-56
2022/11/28 14:56:50;;;;;;;;;;;22.00;54.90;;;;;;5843420;29;20695;-52
2022/11/28 14:59:57;;;;;;;;;;;22.50;55.40;;;;;;5839180;28;20626;-46
2022/11/28 15:03:15;;;;;;;;;;;22.50;55.20;;;;;;5827792;29;19941;-45
2022/11/28 15:06:18;;;;;;;;;;;21.50;54.50;;;;;;5834922;29;20010;-46
2022/11/28 15:09:22;;;;;;;;;;;22.20;55.20;;;;;;5810591;29;20682;-48
2022/11/28 15:12:27;;;;;;;;;;;22.40;55.20;;;;;;5717241;29;21983;-50
2022/11/28 15:15:30;;;;;;;;;;;22.10;55.00;;;;;;5817014;29;20081;-46
2022/11/28 15:18:32;;;;;;;;;;;21.60;54.80;;;;;;5816685;28;19931;-46
2022/11/28 15:21:41;;;;;;;;;;;21.30;54.40;;;;;;5842976;28;22780;-45
2022/11/28 15:24:50;;;;;;;;;;;22.00;54.80;;;;;;5848189;29;20672;-46
2022/11/28 15:27:54;;;;;;;;;;;22.20;55.10;;;;;;5842544;29;19935;-48
2022/11/28 15:30:56;;;;;;;;;;;22.50;55.40;;;;;;5855067;29;19970;-49
2022/11/28 15:33:58;;;;;;;;;;;22.10;54.90;;;;;;5831834;28;20021;-46
2022/11/28 15:37:01;;;;;;;;;;;22.50;55.10;;;;;;5819346;29;20041;-48
2022/11/28 15:40:04;;;;;;;;;;;22.00;55.00;;;;;;5854852;29;20682;-47
2022/11/28 15:43:07;;;;;;;;;;;22.40;55.00;;;;;;5863567;28;19931;-45
2022/11/28 15:46:17;;;;;;;;;;;21.80;54.80;;;;;;5854915;29;20405;-45
2022/11/28 15:49:24;;;;;;;;;;;22.20;54.50;;;;;;5849471;28;19930;-46
2022/11/28 15:52:25;;;;;;;;;;;22.00;54.70;;;;;;5676004;29;23518;-48
2022/11/28 15:55:29;;;;;;;;;;;22.20;55.00;;;;;;5870697;29;19931;-46
2022/11/28 15:58:31;;;;;;;;;;;21.50;54.50;;;;;;5844243;29;23673;-52
2022/11/28 16:01:35;;;;;;;;;;;22.40;55.10;;;;;;5829252;29;19930;-46
2022/11/28 16:04:41;;;;;;;;;;;21.70;54.50;;;;;;5826337;29;22736;-47
2022/11/28 16:07:43;;;;;;;;;;;22.20;54.80;;;;;;5977644;28;19942;-49
2022/11/28 16:10:45;;;;;;;;;;;22.10;54.70;;;;;;5769210;28;26111;-47
2022/11/28 16:13:48;;;;;;;;;;;22.30;55.10;;;;;;5780015;29;22246;-47
2022/11/28 16:16:49;;;;;;;;;;;22.20;54.90;;;;;;5786793;29;22607;-50
2022/11/28 16:19:52;;;;;;;;;;;22.20;54.80;;;;;;5772376;29;23903;-50
2022/11/28 16:22:58;;;;;;;;;;;22.40;54.90;;;;;;5779642;28;19930;-47
2022/11/28 16:26:02;;;;;;;;;;;22.10;54.80;;;;;;5786615;29;20717;-47
2022/11/28 16:29:12;;;;;;;;;;;22.20;55.00;;;;;;5802736;29;20353;-45
2022/11/28 16:32:20;;;;;;;;;;;22.30;55.00;;;;;;5847996;28;21166;-47
2022/11/28 16:35:24;;;;;;;;;;;22.30;54.70;;;;;;5862618;29;22355;-48
2022/11/28 16:38:26;;;;;;;;;;;22.40;54.70;;;;;;5894761;29;21117;-53
2022/11/28 16:41:30;;;;;;;;;;;22.30;54.70;;;;;;5876960;29;19953;-46
2022/11/28 16:44:33;;;;;;;;;;;22.10;54.80;;;;;;5900055;29;19978;-48
2022/11/28 16:47:36;;;;;;;;;;;22.10;54.80;;;;;;5880210;29;19973;-47
2022/11/28 16:50:37;;;;;;;;;;;22.40;54.80;;;;;;5888365;29;19979;-45
2022/11/28 16:53:41;;;;;;;;;;;22.10;54.60;;;;;;5902016;29;19981;-45
2022/11/28 16:56:43;;;;;;;;;;;22.50;54.80;;;;;;5918352;29;20847;-46
2022/11/28 16:59:45;;;;;;;;;;;21.70;54.60;;;;;;5920699;29;20864;-46
2022/11/28 17:02:50;;;;;;;;;;;22.30;55.20;;;;;;5911699;29;20395;-47
2022/11/28 17:05:52;;;;;;;;;;;22.00;55.10;;;;;;5899371;29;19990;-45
2022/11/28 17:08:53;;;;;;;;;;;21.30;54.70;;;;;;5921541;28;20382;-47
2022/11/28 17:11:57;;;;;;;;;;;21.80;55.10;;;;;;5918576;29;19931;-47
2022/11/28 17:14:58;;;;;;;;;;;21.50;54.10;;;;;;5926718;29;19954;-48
2022/11/28 17:18:00;;;;;;;;;;;21.90;55.40;;;;;;5702970;29;19930;-46
2022/11/28 17:21:01;;;;;;;;;;;21.50;55.50;;;;;;5627420;29;20443;-46
2022/11/28 17:24:03;;;;;;;;;;;21.80;55.30;;;;;;5990125;29;20310;-46
2022/11/28 17:27:06;;;;;;;;;;;22.10;55.60;;;;;;5974112;29;19978;-47
2022/11/28 17:30:11;;;;;;;;;;;21.60;55.40;;;;;;5991565;29;19935;-45
2022/11/28 17:33:14;;;;;;;;;;;22.00;56.20;;;;;;5992617;29;20025;-48
2022/11/28 17:36:15;;;;;;;;;;;21.60;55.50;;;;;;5994255;29;20037;-46
2022/11/28 17:39:18;;;;;;;;;;;21.70;55.70;;;;;;5998389;29;19931;-46
2022/11/28 17:42:20;;;;;;;;;;;21.60;55.70;;;;;;6011830;29;19931;-45
2022/11/28 17:45:25;;;;;;;;;;;22.10;56.10;;;;;;6016738;29;19931;-45
2022/11/28 17:48:27;;;;;;;;;;;21.50;55.70;;;;;;6017890;29;19974;-46
2022/11/28 17:51:30;;;;;;;;;;;21.70;56.10;;;;;;6021133;29;19927;-46